Time;durP1;ratioP1;P1;durP2;ratioP2;P2;SDS_P1;SDS_P2;PMS_P1;PMS_P2;Temp;Humidity;BMP_temperature;BMP_pressure;BME280_temperature;BME280_humidity;BME280_pressure;Samples;Min_cycle;Max_cycle;Signal;HPM_P1;HPM_P2
2023/12/21 00:04:32;;;;;;;1999.90;999.90;;;10.50;99.90;;;;;;5035252;28;20478;-71
2023/12/21 00:06:58;;;;;;;1999.90;999.90;;;10.50;99.90;;;;;;5033927;28;20433;-71
2023/12/21 00:09:23;;;;;;;1999.90;999.90;;;10.50;99.90;;;;;;5035118;28;20052;-71
2023/12/21 00:11:49;;;;;;;1999.90;999.90;;;10.50;99.90;;;;;;5034354;28;20116;-71
2023/12/21 00:14:15;;;;;;;1999.90;999.90;;;10.50;99.90;;;;;;5032218;28;20096;-71
2023/12/21 00:16:40;;;;;;;1999.90;999.90;;;10.50;99.90;;;;;;5033083;28;20032;-71
2023/12/21 00:19:06;;;;;;;1999.90;999.90;;;10.50;99.90;;;;;;5030290;28;20053;-74
2023/12/21 00:21:32;;;;;;;1999.90;999.90;;;10.50;99.90;;;;;;5027134;28;20109;-71
2023/12/21 00:23:58;;;;;;;1999.90;999.90;;;10.50;99.90;;;;;;5034249;28;20040;-71
2023/12/21 00:26:23;;;;;;;1999.90;999.90;;;10.50;99.90;;;;;;5035276;28;20030;-71
2023/12/21 00:28:49;;;;;;;1999.90;999.90;;;10.50;99.90;;;;;;5032984;28;20034;-71
2023/12/21 00:31:15;;;;;;;1999.90;999.90;;;10.50;99.90;;;;;;5034329;28;20042;-71
2023/12/21 00:33:40;;;;;;;1999.90;999.90;;;10.50;99.90;;;;;;5034889;28;20030;-72
2023/12/21 00:36:06;;;;;;;1999.90;999.90;;;10.60;99.90;;;;;;5033278;28;20336;-71
2023/12/21 00:38:32;;;;;;;1999.90;999.90;;;10.50;99.90;;;;;;5034917;28;20021;-71
2023/12/21 00:40:59;;;;;;;1999.90;999.90;;;10.50;99.90;;;;;;5033327;28;20045;-71
2023/12/21 00:43:25;;;;;;;1999.90;999.90;;;10.50;99.90;;;;;;5033894;28;20029;-71
2023/12/21 00:45:51;;;;;;;1999.90;999.90;;;10.50;99.90;;;;;;5034472;28;20454;-71
2023/12/21 00:48:17;;;;;;;1999.90;999.90;;;10.50;99.90;;;;;;5034205;28;20037;-71
2023/12/21 00:50:42;;;;;;;1999.90;999.90;;;10.50;99.90;;;;;;5033329;28;20021;-70
2023/12/21 00:53:08;;;;;;;1999.90;999.90;;;10.50;99.90;;;;;;5034620;28;20025;-71
2023/12/21 00:55:34;;;;;;;1999.90;999.90;;;10.40;99.90;;;;;;5030432;28;20367;-71
2023/12/21 00:58:00;;;;;;;1999.90;999.90;;;10.50;99.90;;;;;;5034610;28;20018;-71
2023/12/21 01:00:26;;;;;;;1999.90;999.90;;;10.50;99.90;;;;;;5033782;28;20033;-70
2023/12/21 01:02:51;;;;;;;1999.90;999.90;;;10.40;99.90;;;;;;5034266;28;20412;-71
2023/12/21 01:05:18;;;;;;;1999.90;999.90;;;10.40;99.90;;;;;;5029612;28;20042;-71
2023/12/21 01:07:44;;;;;;;;;;;10.40;99.90;;;;;;5028367;28;20104;-71
2023/12/21 01:10:10;;;;;;;1999.90;999.90;;;10.40;99.90;;;;;;5035314;28;19997;-71
2023/12/21 01:12:35;;;;;;;1999.90;999.90;;;10.40;99.90;;;;;;5030835;28;20033;-71
2023/12/21 01:15:03;;;;;;;1999.90;999.90;;;10.40;99.90;;;;;;5026469;28;20379;-72
2023/12/21 01:17:29;;;;;;;1999.90;999.90;;;10.40;99.90;;;;;;5041335;28;20412;-71
2023/12/21 01:19:55;;;;;;;1999.90;999.90;;;10.40;99.90;;;;;;5032443;28;20045;-72
2023/12/21 01:22:20;;;;;;;1999.90;999.90;;;10.40;99.90;;;;;;5035573;28;20042;-72
2023/12/21 01:24:46;;;;;;;1999.90;999.90;;;10.50;99.90;;;;;;5034743;28;20099;-71
2023/12/21 01:27:12;;;;;;;1999.90;999.90;;;10.50;99.90;;;;;;5032340;28;20068;-71
2023/12/21 01:29:37;;;;;;;1999.90;999.90;;;10.50;99.90;;;;;;5035344;28;20108;-71
2023/12/21 01:32:03;;;;;;;1999.90;999.90;;;10.50;99.90;;;;;;5038667;28;20022;-71
2023/12/21 01:34:29;;;;;;;1999.90;999.90;;;10.50;99.90;;;;;;5031114;28;20060;-71
2023/12/21 01:36:55;;;;;;;1999.90;999.90;;;10.50;99.90;;;;;;5036306;28;20018;-71
2023/12/21 01:39:20;;;;;;;1999.90;999.90;;;10.50;99.90;;;;;;5026925;28;20056;-71
2023/12/21 01:41:46;;;;;;;1999.90;999.90;;;10.40;99.90;;;;;;5024451;28;20110;-71
2023/12/21 01:44:12;;;;;;;1999.90;999.90;;;10.40;99.90;;;;;;5031032;28;20033;-71
2023/12/21 01:46:38;;;;;;;1999.90;999.90;;;10.40;99.90;;;;;;5033386;28;20040;-71
2023/12/21 01:49:04;;;;;;;1999.90;999.90;;;10.40;99.90;;;;;;5032586;28;20025;-71
2023/12/21 01:51:32;;;;;;;1999.90;999.90;;;10.40;99.90;;;;;;5033356;28;20040;-71
2023/12/21 01:54:02;;;;;;;1999.90;999.90;;;10.50;99.90;;;;;;5033199;28;20029;-71
2023/12/21 01:56:28;;;;;;;1999.90;999.90;;;10.50;99.90;;;;;;5031470;28;20328;-71
2023/12/21 01:58:54;;;;;;;1999.90;999.90;;;10.50;99.90;;;;;;5031440;28;20026;-71
2023/12/21 02:01:19;;;;;;;1999.90;999.90;;;10.50;99.90;;;;;;5032509;28;20636;-71
2023/12/21 02:03:46;;;;;;;1999.90;999.90;;;10.60;99.90;;;;;;5032513;28;20688;-71
2023/12/21 02:06:12;;;;;;;1999.90;999.90;;;10.60;99.90;;;;;;5033291;28;20029;-71
2023/12/21 02:08:37;;;;;;;1999.90;999.90;;;10.60;99.90;;;;;;5032630;28;20118;-71
2023/12/21 02:11:08;;;;;;;1999.90;999.90;;;10.60;99.90;;;;;;5026762;28;20322;-71
2023/12/21 02:13:34;;;;;;;1999.90;999.90;;;10.60;99.90;;;;;;5029422;28;20363;-71
2023/12/21 02:16:05;;;;;;;1999.90;999.90;;;10.60;99.90;;;;;;5026590;28;20101;-70
2023/12/21 02:18:32;;;;;;;1999.90;999.90;;;10.60;99.90;;;;;;5030460;28;20439;-71
2023/12/21 02:20:58;;;;;;;1999.90;999.90;;;10.50;99.90;;;;;;5032623;28;20045;-71
2023/12/21 02:23:28;;;;;;;1999.90;999.90;;;10.50;99.90;;;;;;5023408;28;20037;-71
2023/12/21 02:25:54;;;;;;;1999.90;999.90;;;10.50;99.90;;;;;;5026115;28;20112;-71
2023/12/21 02:28:20;;;;;;;1999.90;999.90;;;10.60;99.90;;;;;;5031842;28;20364;-71
2023/12/21 02:30:48;;;;;;;1999.90;999.90;;;10.50;99.90;;;;;;5030938;28;20026;-71
2023/12/21 02:33:14;;;;;;;1999.90;999.90;;;10.50;99.90;;;;;;5032681;28;20025;-72
2023/12/21 02:35:40;;;;;;;1999.90;999.90;;;10.50;99.90;;;;;;5032667;28;20026;-72
2023/12/21 02:38:06;;;;;;;1999.90;999.90;;;10.50;99.90;;;;;;5032593;28;20475;-71
2023/12/21 02:40:31;;;;;;;1999.90;999.90;;;10.50;99.90;;;;;;5032611;28;20029;-71
2023/12/21 02:42:57;;;;;;;1999.90;999.90;;;10.50;99.90;;;;;;5032549;28;20160;-71
2023/12/21 02:45:23;;;;;;;1999.90;999.90;;;10.50;99.90;;;;;;5032101;28;20061;-72
2023/12/21 02:47:48;;;;;;;1999.90;999.90;;;10.50;99.90;;;;;;5029848;28;20026;-72
2023/12/21 02:50:14;;;;;;;1999.90;999.90;;;10.50;99.90;;;;;;5036200;28;20022;-71
2023/12/21 02:52:40;;;;;;;1999.90;999.90;;;10.50;99.90;;;;;;5036092;28;20031;-71
2023/12/21 02:55:06;;;;;;;1999.90;999.90;;;10.50;99.90;;;;;;5036218;28;20033;-72
2023/12/21 02:57:31;;;;;;;1999.90;999.90;;;10.50;99.90;;;;;;5034100;28;20021;-72
2023/12/21 02:59:57;;;;;;;1999.90;999.90;;;10.50;99.90;;;;;;5037256;28;20029;-72
2023/12/21 03:02:23;;;;;;;1999.90;999.90;;;10.50;99.90;;;;;;5035656;28;20428;-72
2023/12/21 03:04:48;;;;;;;1999.90;999.90;;;10.50;99.90;;;;;;5036697;28;20021;-71
2023/12/21 03:07:14;;;;;;;1999.90;999.90;;;10.50;99.90;;;;;;5035547;28;20029;-71
2023/12/21 03:09:40;;;;;;;1999.90;999.90;;;10.50;99.90;;;;;;5036912;28;20025;-72
2023/12/21 03:12:06;;;;;;;1999.90;999.90;;;10.50;99.90;;;;;;5035987;28;20022;-71
2023/12/21 03:14:31;;;;;;;1999.90;999.90;;;10.50;99.90;;;;;;5036270;28;20026;-72
2023/12/21 03:16:57;;;;;;;1999.90;999.90;;;10.50;99.90;;;;;;5036534;28;20440;-71
2023/12/21 03:19:23;;;;;;;1999.90;999.90;;;10.50;99.90;;;;;;5031214;28;20109;-71
2023/12/21 03:21:48;;;;;;;1999.90;999.90;;;10.50;99.90;;;;;;5036356;28;20033;-72
2023/12/21 03:24:14;;;;;;;1999.90;999.90;;;10.60;99.90;;;;;;5029655;28;20037;-71
2023/12/21 03:26:41;;;;;;;1999.90;999.90;;;10.50;99.90;;;;;;5032857;28;20033;-72
2023/12/21 03:29:07;;;;;;;1999.90;999.90;;;10.50;99.90;;;;;;5034899;28;20435;-71
2023/12/21 03:31:33;;;;;;;1999.90;999.90;;;10.50;99.90;;;;;;5034494;28;20030;-72
2023/12/21 03:33:58;;;;;;;1999.90;999.90;;;10.50;99.90;;;;;;5034726;28;20037;-71
2023/12/21 03:36:26;;;;;;;1999.90;999.90;;;10.50;99.90;;;;;;5032500;28;20026;-71
2023/12/21 03:38:52;;;;;;;1999.90;999.90;;;10.50;99.90;;;;;;5036124;28;20037;-72
2023/12/21 03:41:18;;;;;;;1999.90;999.90;;;10.50;99.90;;;;;;5030325;28;20061;-71
2023/12/21 03:43:43;;;;;;;1999.90;999.90;;;10.60;99.90;;;;;;5034490;28;20039;-72
2023/12/21 03:46:09;;;;;;;1999.90;999.90;;;10.60;99.90;;;;;;5034881;28;20033;-71
2023/12/21 03:48:35;;;;;;;1999.90;999.90;;;10.60;99.90;;;;;;5050200;28;20107;-72
2023/12/21 03:51:01;;;;;;;1999.90;999.90;;;10.60;99.90;;;;;;5034508;28;20279;-71
2023/12/21 03:53:27;;;;;;;1999.90;999.90;;;10.60;99.90;;;;;;5034068;28;20104;-71
2023/12/21 03:55:52;;;;;;;1999.90;999.90;;;10.60;99.90;;;;;;5034583;28;20032;-71
2023/12/21 03:58:18;;;;;;;1999.90;999.90;;;10.60;99.90;;;;;;5030179;28;20309;-71
2023/12/21 04:00:44;;;;;;;1999.90;999.90;;;10.60;99.90;;;;;;5033650;28;20034;-73
2023/12/21 04:03:09;;;;;;;1999.90;999.90;;;10.50;99.90;;;;;;5033530;28;20040;-71
2023/12/21 04:05:37;;;;;;;1999.90;999.90;;;10.60;99.90;;;;;;5034959;28;20361;-72
2023/12/21 04:08:03;;;;;;;1999.90;999.90;;;10.60;99.90;;;;;;5034306;28;20119;-71
2023/12/21 04:10:29;;;;;;;1999.90;999.90;;;10.60;99.90;;;;;;5033785;28;20070;-72
2023/12/21 04:12:55;;;;;;;1999.90;999.90;;;10.60;99.90;;;;;;5034852;28;20029;-72
2023/12/21 04:15:21;;;;;;;1999.90;999.90;;;10.60;99.90;;;;;;5033186;28;20044;-72
2023/12/21 04:17:46;;;;;;;1999.90;999.90;;;10.60;99.90;;;;;;5034340;28;20387;-73
2023/12/21 04:20:12;;;;;;;1999.90;999.90;;;10.60;99.90;;;;;;5033567;28;20037;-71
2023/12/21 04:22:38;;;;;;;1999.90;999.90;;;10.60;99.90;;;;;;5034064;28;20064;-71
2023/12/21 04:25:04;;;;;;;1999.90;999.90;;;10.60;99.90;;;;;;5032792;28;20104;-71
2023/12/21 04:27:29;;;;;;;1999.90;999.90;;;10.60;99.90;;;;;;5033687;28;20033;-72
2023/12/21 04:29:55;;;;;;;1999.90;999.90;;;10.60;99.90;;;;;;5034382;28;20022;-71
2023/12/21 04:32:21;;;;;;;1999.90;999.90;;;10.60;99.90;;;;;;5031721;28;20029;-72
2023/12/21 04:34:46;;;;;;;1999.90;999.90;;;10.60;99.90;;;;;;5033765;28;20404;-71
2023/12/21 04:37:12;;;;;;;1999.90;999.90;;;10.70;99.90;;;;;;5028433;28;20025;-71
2023/12/21 04:39:38;;;;;;;1999.90;999.90;;;10.70;99.90;;;;;;5033937;28;20029;-72
2023/12/21 04:42:04;;;;;;;1999.90;999.90;;;10.70;99.90;;;;;;4988259;28;1321727;-72
2023/12/21 04:44:30;;;;;;;1999.90;999.90;;;10.80;99.90;;;;;;5033928;28;20030;-71
2023/12/21 04:46:55;;;;;;;1999.90;999.90;;;10.70;99.90;;;;;;5034544;28;20030;-71
2023/12/21 04:49:24;;;;;;;1999.90;999.90;;;10.70;99.90;;;;;;5030878;28;20048;-71
2023/12/21 04:51:49;;;;;;;1999.90;999.90;;;10.70;99.90;;;;;;5034171;28;20070;-72
2023/12/21 04:54:15;;;;;;;1999.90;999.90;;;10.70;99.90;;;;;;5026694;28;20398;-71
2023/12/21 04:56:42;;;;;;;1999.90;999.90;;;10.70;99.90;;;;;;5031042;28;20026;-71
2023/12/21 04:59:08;;;;;;;;;;;10.70;99.90;;;;;;5034111;28;20029;-72
2023/12/21 05:01:34;;;;;;;1999.90;999.90;;;10.70;99.90;;;;;;5033565;28;19916;-72
2023/12/21 05:04:02;;;;;;;1999.90;999.90;;;10.70;99.90;;;;;;5034425;28;20040;-71
2023/12/21 05:06:28;;;;;;;1999.90;999.90;;;10.70;99.90;;;;;;5033145;28;20110;-71
2023/12/21 05:08:54;;;;;;;1999.90;999.90;;;10.70;99.90;;;;;;5033776;28;20408;-72
2023/12/21 05:11:20;;;;;;;1999.90;999.90;;;10.70;99.90;;;;;;5030398;28;20033;-71
2023/12/21 05:13:46;;;;;;;1999.90;999.90;;;10.70;99.90;;;;;;5037001;28;20028;-71
2023/12/21 05:16:12;;;;;;;1999.90;999.90;;;10.60;99.90;;;;;;5030880;28;20033;-72
2023/12/21 05:18:37;;;;;;;1999.90;999.90;;;10.60;99.90;;;;;;5032790;28;20087;-71
2023/12/21 05:21:06;;;;;;;1999.90;999.90;;;10.60;99.90;;;;;;5022022;28;20048;-71
2023/12/21 05:23:32;;;;;;;1999.90;999.90;;;10.60;99.90;;;;;;5027041;28;20039;-72
2023/12/21 05:25:58;;;;;;;1999.90;999.90;;;10.50;99.90;;;;;;5036624;28;20033;-72
2023/12/21 05:28:23;;;;;;;1999.90;999.90;;;10.50;99.90;;;;;;5034539;28;20032;-71
2023/12/21 05:30:51;;;;;;;1999.90;999.90;;;10.50;99.90;;;;;;5028534;28;20030;-72
2023/12/21 05:33:16;;;;;;;1999.90;999.90;;;10.50;99.90;;;;;;5032861;28;20018;-71
2023/12/21 05:35:42;;;;;;;1999.90;999.90;;;10.50;99.90;;;;;;5033627;28;20030;-72
2023/12/21 05:38:08;;;;;;;1999.90;999.90;;;10.40;99.90;;;;;;5033405;28;20025;-72
2023/12/21 05:40:34;;;;;;;1999.90;999.90;;;10.40;99.90;;;;;;5034219;28;20065;-72
2023/12/21 05:43:00;;;;;;;1999.90;999.90;;;10.50;99.90;;;;;;5031214;28;20048;-72
2023/12/21 05:45:25;;;;;;;1999.90;999.90;;;10.50;99.90;;;;;;5032907;28;20071;-72
2023/12/21 05:47:51;;;;;;;1999.90;999.90;;;10.50;99.90;;;;;;5029248;28;20083;-71
2023/12/21 05:50:17;;;;;;;1999.90;999.90;;;10.50;99.90;;;;;;5033416;28;20040;-71
2023/12/21 05:52:42;;;;;;;1999.90;999.90;;;10.50;99.90;;;;;;5026606;28;20032;-71
2023/12/21 05:55:14;;;;;;;1999.90;999.90;;;10.50;99.90;;;;;;5034042;28;20029;-72
2023/12/21 05:57:40;;;;;;;1999.90;999.90;;;10.50;99.90;;;;;;5031573;28;20045;-72
2023/12/21 06:00:08;;;;;;;1999.90;999.90;;;10.50;99.90;;;;;;5033455;28;20035;-71
2023/12/21 06:02:34;;;;;;;1999.90;999.90;;;10.50;99.90;;;;;;5031466;28;20425;-72
2023/12/21 06:04:59;;;;;;;1999.90;999.90;;;10.50;99.90;;;;;;5032718;28;20034;-72
2023/12/21 06:07:25;;;;;;;1999.90;999.90;;;10.50;99.90;;;;;;5037005;28;20043;-71
2023/12/21 06:09:52;;;;;;;1999.90;999.90;;;10.60;99.90;;;;;;5033521;28;20037;-72
2023/12/21 06:12:17;;;;;;;1999.90;999.90;;;10.60;99.90;;;;;;5037963;28;20098;-71
2023/12/21 06:14:43;;;;;;;1999.90;999.90;;;10.60;99.90;;;;;;5030836;28;20052;-71
2023/12/21 06:17:11;;;;;;;1999.90;999.90;;;10.50;99.90;;;;;;5024954;28;20021;-71
2023/12/21 06:19:36;;;;;;;1999.90;999.90;;;10.60;99.90;;;;;;5029100;28;20175;-71
2023/12/21 06:22:02;;;;;;;1999.90;999.90;;;10.60;99.90;;;;;;5038037;28;20104;-71
2023/12/21 06:24:28;;;;;;;1999.90;999.90;;;10.50;99.90;;;;;;5035843;28;20037;-71
2023/12/21 06:26:53;;;;;;;1999.90;999.90;;;10.60;99.90;;;;;;5031340;28;20438;-71
2023/12/21 06:29:19;;;;;;;1999.90;999.90;;;10.50;99.90;;;;;;5037323;28;20033;-71
2023/12/21 06:31:44;;;;;;;1999.90;999.90;;;10.60;99.90;;;;;;5032361;28;20021;-71
2023/12/21 06:34:10;;;;;;;1999.90;999.90;;;10.60;99.90;;;;;;5031114;28;20049;-71
2023/12/21 06:36:36;;;;;;;1999.90;999.90;;;10.50;99.90;;;;;;5027063;28;20029;-72
2023/12/21 06:39:02;;;;;;;1999.90;999.90;;;10.60;99.90;;;;;;5026108;28;20033;-71
2023/12/21 06:41:28;;;;;;;1999.90;999.90;;;10.60;99.90;;;;;;5031343;28;20061;-71
2023/12/21 06:43:54;;;;;;;1999.90;999.90;;;10.60;99.90;;;;;;5027615;28;20022;-71
2023/12/21 06:46:21;;;;;;;1999.90;999.90;;;10.60;99.90;;;;;;5030062;28;20025;-72
2023/12/21 06:48:46;;;;;;;1999.90;999.90;;;10.60;99.90;;;;;;5035470;28;20018;-71
2023/12/21 06:51:13;;;;;;;1999.90;999.90;;;10.60;99.90;;;;;;5028883;28;20047;-71
2023/12/21 06:53:39;;;;;;;1999.90;999.90;;;10.60;99.90;;;;;;5040905;28;20029;-71
2023/12/21 06:56:06;;;;;;;1999.90;999.90;;;10.60;99.90;;;;;;5029921;28;20301;-71
2023/12/21 06:58:31;;;;;;;1999.90;999.90;;;10.60;99.90;;;;;;5036258;28;20021;-71
2023/12/21 07:00:58;;;;;;;1999.90;999.90;;;10.70;99.90;;;;;;5035134;28;20474;-72
2023/12/21 07:03:23;;;;;;;1999.90;999.90;;;10.70;99.90;;;;;;5036451;28;20088;-72
2023/12/21 07:05:52;;;;;;;1999.90;999.90;;;10.70;99.90;;;;;;5032719;28;20029;-71
2023/12/21 07:08:18;;;;;;;1999.90;999.90;;;10.70;99.90;;;;;;5029008;28;20041;-71
2023/12/21 07:10:44;;;;;;;1999.90;999.90;;;10.70;99.90;;;;;;5031797;28;20029;-72
2023/12/21 07:13:11;;;;;;;1999.90;999.90;;;10.70;99.90;;;;;;5033933;28;20029;-71
2023/12/21 07:15:38;;;;;;;1999.90;999.90;;;10.70;99.90;;;;;;5035512;28;20034;-71
2023/12/21 07:18:04;;;;;;;1999.90;999.90;;;10.70;99.90;;;;;;5035072;28;20018;-71
2023/12/21 07:20:30;;;;;;;1999.90;999.90;;;10.70;99.90;;;;;;5039512;28;20021;-71
2023/12/21 07:22:57;;;;;;;1999.90;999.90;;;10.60;99.90;;;;;;5038181;28;20265;-71
2023/12/21 07:25:22;;;;;;;1999.90;999.90;;;10.60;99.90;;;;;;5036408;28;20099;-70
2023/12/21 07:27:48;;;;;;;1999.90;999.90;;;10.50;99.90;;;;;;5039280;28;20034;-71
2023/12/21 07:30:16;;;;;;;1999.90;999.90;;;10.50;99.90;;;;;;5035634;28;20037;-71
2023/12/21 07:32:42;;;;;;;1999.90;999.90;;;10.50;99.90;;;;;;5032114;28;20074;-71
2023/12/21 07:35:08;;;;;;;1999.90;999.90;;;10.50;99.90;;;;;;5034347;28;20030;-71
2023/12/21 07:37:34;;;;;;;1999.90;999.90;;;10.50;99.90;;;;;;5036272;28;20029;-71
2023/12/21 07:40:00;;;;;;;1999.90;999.90;;;10.50;99.90;;;;;;5035383;28;20033;-71
2023/12/21 07:42:27;;;;;;;1999.90;999.90;;;10.50;99.90;;;;;;5035671;28;20076;-72
2023/12/21 07:44:53;;;;;;;1999.90;999.90;;;10.50;99.90;;;;;;5031930;28;20057;-71
2023/12/21 07:47:18;;;;;;;1999.90;999.90;;;10.50;99.90;;;;;;5036033;28;20064;-71
2023/12/21 07:49:44;;;;;;;1999.90;999.90;;;10.50;99.90;;;;;;5035257;28;20037;-73
2023/12/21 07:52:10;;;;;;;1999.90;999.90;;;10.50;99.90;;;;;;5035250;28;20038;-71
2023/12/21 07:54:35;;;;;;;1999.90;999.90;;;10.50;99.90;;;;;;5035556;28;20083;-73
2023/12/21 07:57:01;;;;;;;1999.90;999.90;;;10.50;99.90;;;;;;5035134;28;20036;-71
2023/12/21 07:59:27;;;;;;;1999.90;999.90;;;10.50;99.90;;;;;;5035236;28;20348;-71
2023/12/21 08:01:53;;;;;;;1999.90;999.90;;;10.60;99.90;;;;;;5035470;28;20112;-71
2023/12/21 08:04:19;;;;;;;1999.90;999.90;;;10.50;99.90;;;;;;5035701;28;20064;-71
2023/12/21 08:06:45;;;;;;;1999.90;999.90;;;10.50;99.90;;;;;;5031528;28;20026;-71
2023/12/21 08:09:11;;;;;;;1999.90;999.90;;;10.60;99.90;;;;;;5034583;28;20088;-71
2023/12/21 08:11:36;;;;;;;1999.90;999.90;;;10.60;99.90;;;;;;5035530;28;20083;-71
2023/12/21 08:14:02;;;;;;;1999.90;999.90;;;10.60;99.90;;;;;;5025165;28;20033;-71
2023/12/21 08:16:28;;;;;;;1999.90;999.90;;;10.60;99.90;;;;;;5035637;28;20037;-71
2023/12/21 08:18:55;;;;;;;1999.90;999.90;;;10.60;99.90;;;;;;5038763;28;20092;-72
2023/12/21 08:21:21;;;;;;;1999.90;999.90;;;10.70;99.90;;;;;;5034524;28;20054;-72
2023/12/21 08:23:47;;;;;;;1999.90;999.90;;;10.70;99.90;;;;;;5034655;28;20682;-72
2023/12/21 08:26:13;;;;;;;1999.90;999.90;;;10.70;99.90;;;;;;5034364;28;20116;-72
2023/12/21 08:28:38;;;;;;;1999.90;999.90;;;10.70;99.90;;;;;;5033539;28;20033;-72
2023/12/21 08:31:04;;;;;;;1999.90;999.90;;;10.80;99.90;;;;;;5034736;28;20018;-71
2023/12/21 08:33:30;;;;;;;1999.90;999.90;;;10.80;99.90;;;;;;5035097;28;20163;-71
2023/12/21 08:35:57;;;;;;;1999.90;999.90;;;10.80;99.90;;;;;;5034494;28;20033;-71
2023/12/21 08:38:22;;;;;;;1999.90;999.90;;;10.90;99.90;;;;;;5034664;28;20033;-71
2023/12/21 08:40:48;;;;;;;1999.90;999.90;;;10.90;99.90;;;;;;5034899;28;20033;-72
2023/12/21 08:43:14;;;;;;;1999.90;999.90;;;10.90;99.90;;;;;;5034152;28;20109;-71
2023/12/21 08:45:40;;;;;;;1999.90;999.90;;;10.90;99.90;;;;;;5034086;28;20160;-71
2023/12/21 08:48:06;;;;;;;1999.90;999.90;;;10.90;99.90;;;;;;5032802;28;20029;-71
2023/12/21 08:50:32;;;;;;;1999.90;999.90;;;10.90;99.90;;;;;;5033797;28;20048;-71
2023/12/21 08:53:00;;;;;;;1999.90;999.90;;;10.90;99.90;;;;;;5034177;28;20051;-72
2023/12/21 08:55:28;;;;;;;1999.90;999.90;;;10.90;99.90;;;;;;5034563;28;20433;-71
2023/12/21 08:57:55;;;;;;;1999.90;999.90;;;10.90;99.90;;;;;;5026322;28;20018;-71
2023/12/21 09:00:21;;;;;;;1999.90;999.90;;;10.90;99.90;;;;;;5032818;28;20026;-71
2023/12/21 09:02:46;;;;;;;1999.90;999.90;;;10.90;99.90;;;;;;5034346;28;20029;-74
2023/12/21 09:05:13;;;;;;;1999.90;999.90;;;10.90;99.90;;;;;;5030622;28;20425;-71
2023/12/21 09:07:39;;;;;;;1999.90;999.90;;;10.90;99.90;;;;;;5033366;28;20053;-71
2023/12/21 09:10:06;;;;;;;1999.90;999.90;;;10.90;99.90;;;;;;5033819;28;20422;-71
2023/12/21 09:12:31;;;;;;;;;;;11.10;99.90;;;;;;5034623;28;20022;-71
2023/12/21 09:14:57;;;;;;;1999.90;999.90;;;11.10;99.90;;;;;;5032589;28;20015;-72
2023/12/21 09:17:23;;;;;;;1999.90;999.90;;;11.20;99.90;;;;;;5040426;28;20271;-71
2023/12/21 09:19:48;;;;;;;1999.90;999.90;;;11.20;99.90;;;;;;5034724;28;20459;-71
2023/12/21 09:22:14;;;;;;;1999.90;999.90;;;11.30;99.90;;;;;;5033917;28;20367;-71
2023/12/21 09:24:40;;;;;;;1999.90;999.90;;;11.40;99.90;;;;;;5034728;28;20052;-71
2023/12/21 09:27:06;;;;;;;1999.90;999.90;;;11.40;99.90;;;;;;5033858;28;20420;-71
2023/12/21 09:29:32;;;;;;;1999.90;999.90;;;11.50;99.90;;;;;;5034207;28;20040;-71
2023/12/21 09:31:59;;;;;;;1999.90;999.90;;;11.50;99.90;;;;;;5029370;28;20025;-72
2023/12/21 09:34:25;;;;;;;1999.90;999.90;;;11.50;99.90;;;;;;5030910;28;20030;-72
2023/12/21 09:36:53;;;;;;;1999.90;999.90;;;11.50;99.90;;;;;;5028465;28;20033;-72
2023/12/21 09:39:19;;;;;;;1999.90;999.90;;;11.50;99.90;;;;;;5021537;28;20063;-71
2023/12/21 09:41:44;;;;;;;1999.90;999.90;;;11.50;99.90;;;;;;5036201;28;20067;-71
2023/12/21 09:44:16;;;;;;;1999.90;999.90;;;11.60;99.90;;;;;;5029522;28;20041;-72
2023/12/21 09:46:44;;;;;;;1999.90;999.90;;;11.60;99.90;;;;;;5031865;28;20025;-71
2023/12/21 09:49:11;;;;;;;1999.90;999.90;;;11.70;99.90;;;;;;5037733;28;20128;-71
2023/12/21 09:51:38;;;;;;;1999.90;999.90;;;11.70;99.90;;;;;;5024081;28;20361;-72
2023/12/21 09:54:05;;;;;;;1999.90;999.90;;;11.70;99.90;;;;;;5032379;28;20452;-71
2023/12/21 09:56:32;;;;;;;1999.90;999.90;;;11.70;99.90;;;;;;5025167;28;20033;-71
2023/12/21 09:58:58;;;;;;;;;;;11.70;99.90;;;;;;5034484;28;20365;-71
2023/12/21 10:01:24;;;;;;;1999.90;999.90;;;11.60;99.90;;;;;;5032634;28;19940;-71
2023/12/21 10:03:50;;;;;;;1999.90;999.90;;;11.70;99.90;;;;;;5039232;28;20063;-71
2023/12/21 10:06:16;;;;;;;1999.90;999.90;;;11.60;99.90;;;;;;5036823;28;20412;-73
2023/12/21 10:08:42;;;;;;;1999.90;999.90;;;11.70;99.90;;;;;;5039592;28;20013;-71
2023/12/21 10:11:08;;;;;;;1999.90;999.90;;;11.70;99.90;;;;;;5032891;28;20787;-71
2023/12/21 10:13:37;;;;;;;1999.90;999.90;;;11.80;99.90;;;;;;5030607;28;20053;-72
2023/12/21 10:16:03;;;;;;;1999.90;999.90;;;11.90;99.90;;;;;;5034899;28;20417;-71
2023/12/21 10:18:31;;;;;;;1999.90;999.90;;;11.90;99.90;;;;;;5034392;28;20070;-71
2023/12/21 10:20:59;;;;;;;1999.90;999.90;;;11.90;99.90;;;;;;5029903;28;20049;-73
2023/12/21 10:23:25;;;;;;;1999.90;999.90;;;11.90;99.90;;;;;;5032484;28;20029;-71
2023/12/21 10:25:52;;;;;;;1999.90;999.90;;;11.90;99.90;;;;;;5032085;28;20029;-71
2023/12/21 10:28:22;;;;;;;1999.90;999.90;;;12.00;99.90;;;;;;5030671;28;20033;-71
2023/12/21 10:30:56;;;;;;;1999.90;999.90;;;12.00;99.90;;;;;;5028417;28;20022;-71
2023/12/21 10:33:22;;;;;;;1999.90;999.90;;;12.10;99.90;;;;;;5028313;28;20136;-71
2023/12/21 10:35:51;;;;;;;1999.90;999.90;;;12.00;99.90;;;;;;5035955;28;20093;-72
2023/12/21 10:38:17;;;;;;;1999.90;999.90;;;12.00;99.90;;;;;;5025607;28;20017;-73
2023/12/21 10:40:45;;;;;;;1999.90;999.90;;;11.90;99.90;;;;;;5033621;28;20308;-72
2023/12/21 10:43:14;;;;;;;1999.90;999.90;;;11.80;99.90;;;;;;5034172;28;20037;-71
2023/12/21 10:45:44;;;;;;;1999.90;999.90;;;11.80;99.90;;;;;;5039005;28;20096;-72
2023/12/21 10:48:13;;;;;;;1999.90;999.90;;;11.80;99.90;;;;;;5039101;28;20075;-73
2023/12/21 10:50:39;;;;;;;1999.90;999.90;;;11.90;99.90;;;;;;5031494;28;20420;-72
2023/12/21 10:53:05;;;;;;;1999.90;999.90;;;11.90;99.90;;;;;;5035216;28;20025;-71
2023/12/21 10:55:32;;;;;;;1999.90;999.90;;;11.90;99.90;;;;;;5036440;28;20041;-71
2023/12/21 10:58:00;;;;;;;1999.90;999.90;;;11.90;99.90;;;;;;5038037;28;20024;-72
2023/12/21 11:00:26;;;;;;;1999.90;999.90;;;11.90;99.90;;;;;;5032577;28;20028;-72
2023/12/21 11:02:52;;;;;;;1999.90;999.90;;;12.00;99.90;;;;;;5033745;28;20025;-71
2023/12/21 11:05:21;;;;;;;1999.90;999.90;;;12.00;99.90;;;;;;5035785;28;20029;-71
2023/12/21 11:07:52;;;;;;;1999.90;999.90;;;12.00;99.90;;;;;;5037112;28;20025;-71
2023/12/21 11:10:19;;;;;;;1999.90;999.90;;;11.90;99.90;;;;;;5039890;28;20372;-71
2023/12/21 11:12:45;;;;;;;1999.90;999.90;;;11.90;99.90;;;;;;5039704;28;20029;-71
2023/12/21 11:15:15;;;;;;;1999.90;999.90;;;11.80;99.90;;;;;;5041267;28;20051;-71
2023/12/21 11:17:44;;;;;;;1999.90;999.90;;;11.80;99.90;;;;;;5033541;28;20108;-71
2023/12/21 11:20:13;;;;;;;1999.90;999.90;;;11.90;99.90;;;;;;5039085;28;20112;-71
2023/12/21 11:22:39;;;;;;;1999.90;999.90;;;11.90;99.90;;;;;;5033164;28;20045;-71
2023/12/21 11:25:11;;;;;;;1999.90;999.90;;;11.90;99.90;;;;;;5037322;28;20033;-71
2023/12/21 11:27:40;;;;;;;1999.90;999.90;;;11.90;99.90;;;;;;5032705;28;20091;-71
2023/12/21 11:30:10;;;;;;;1999.90;999.90;;;11.90;99.90;;;;;;5037166;28;20033;-71
2023/12/21 11:32:38;;;;;;;1999.90;999.90;;;11.90;99.90;;;;;;5028660;28;20079;-71
2023/12/21 11:35:19;;;;;;;1999.90;999.90;;;11.90;99.90;;;;;;5035636;28;20021;-71
2023/12/21 11:37:48;;;;;;;1999.90;999.90;;;11.90;99.90;;;;;;5038135;28;20366;-71
2023/12/21 11:40:17;;;;;;;1999.90;999.90;;;11.90;99.90;;;;;;5041553;28;20083;-71
2023/12/21 11:42:47;;;;;;;1999.90;999.90;;;11.90;99.90;;;;;;5034968;28;20076;-70
2023/12/21 11:45:23;;;;;;;1999.90;999.90;;;12.00;99.90;;;;;;5048465;28;20021;-70
2023/12/21 11:47:50;;;;;;;1999.90;999.90;;;12.00;99.90;;;;;;5039018;28;20034;-72
2023/12/21 11:50:19;;;;;;;1999.90;999.90;;;12.00;99.90;;;;;;5043212;28;20435;-72
2023/12/21 11:52:44;;;;;;;1999.90;999.90;;;12.10;99.90;;;;;;5035696;28;20075;-71
2023/12/21 11:55:10;;;;;;;1999.90;999.90;;;12.10;99.90;;;;;;5040865;28;20025;-71
2023/12/21 11:57:41;;;;;;;1999.90;999.90;;;12.10;99.90;;;;;;5039628;28;20100;-71
2023/12/21 12:00:12;;;;;;;1999.90;999.90;;;12.10;99.90;;;;;;5033697;28;20104;-71